sensor_id;sensor_type;location;lat;lon;timestamp;P1;durP1;ratioP1;P2;durP2;ratioP2
11328;SDS011;5719;42.714;23.732;2023-09-19T00:01:39;9.20;;;4.40;;
11328;SDS011;5719;42.714;23.732;2023-09-19T00:04:07;5.32;;;4.30;;
11328;SDS011;5719;42.714;23.732;2023-09-19T00:06:35;8.27;;;4.55;;
11328;SDS011;5719;42.714;23.732;2023-09-19T00:09:02;5.80;;;4.20;;
11328;SDS011;5719;42.714;23.732;2023-09-19T00:11:29;5.93;;;4.88;;
11328;SDS011;5719;42.714;23.732;2023-09-19T00:13:56;7.35;;;4.80;;
11328;SDS011;5719;42.714;23.732;2023-09-19T00:16:24;7.70;;;4.53;;
11328;SDS011;5719;42.714;23.732;2023-09-19T00:18:52;6.20;;;4.60;;
11328;SDS011;5719;42.714;23.732;2023-09-19T00:21:20;6.13;;;4.45;;
11328;SDS011;5719;42.714;23.732;2023-09-19T00:23:47;6.15;;;4.45;;
11328;SDS011;5719;42.714;23.732;2023-09-19T00:26:14;8.70;;;5.20;;
11328;SDS011;5719;42.714;23.732;2023-09-19T00:28:43;9.20;;;5.57;;
11328;SDS011;5719;42.714;23.732;2023-09-19T00:31:10;9.38;;;5.10;;
11328;SDS011;5719;42.714;23.732;2023-09-19T00:33:36;7.57;;;5.13;;
11328;SDS011;5719;42.714;23.732;2023-09-19T00:36:03;5.72;;;4.75;;
11328;SDS011;5719;42.714;23.732;2023-09-19T00:38:32;7.55;;;4.80;;
11328;SDS011;5719;42.714;23.732;2023-09-19T00:40:59;5.13;;;4.63;;
11328;SDS011;5719;42.714;23.732;2023-09-19T00:43:26;8.35;;;4.90;;
11328;SDS011;5719;42.714;23.732;2023-09-19T00:45:55;5.55;;;4.80;;
11328;SDS011;5719;42.714;23.732;2023-09-19T00:48:22;4.63;;;4.22;;
11328;SDS011;5719;42.714;23.732;2023-09-19T00:50:54;5.85;;;4.70;;
11328;SDS011;5719;42.714;23.732;2023-09-19T00:53:23;5.57;;;4.50;;
11328;SDS011;5719;42.714;23.732;2023-09-19T00:55:53;5.55;;;4.55;;
11328;SDS011;5719;42.714;23.732;2023-09-19T00:58:21;7.57;;;4.70;;
11328;SDS011;5719;42.714;23.732;2023-09-19T01:00:48;6.60;;;4.82;;
11328;SDS011;5719;42.714;23.732;2023-09-19T01:03:16;5.85;;;4.97;;
11328;SDS011;5719;42.714;23.732;2023-09-19T01:05:43;6.13;;;5.07;;
11328;SDS011;5719;42.714;23.732;2023-09-19T01:08:10;7.95;;;5.57;;
11328;SDS011;5719;42.714;23.732;2023-09-19T01:10:37;5.15;;;4.65;;
11328;SDS011;5719;42.714;23.732;2023-09-19T01:13:13;6.88;;;4.90;;
11328;SDS011;5719;42.714;23.732;2023-09-19T01:15:49;9.35;;;5.03;;
11328;SDS011;5719;42.714;23.732;2023-09-19T01:18:21;7.90;;;5.60;;
11328;SDS011;5719;42.714;23.732;2023-09-19T01:21:01;8.88;;;4.72;;
11328;SDS011;5719;42.714;23.732;2023-09-19T01:23:39;7.88;;;5.05;;
11328;SDS011;5719;42.714;23.732;2023-09-19T01:26:30;7.63;;;5.47;;
11328;SDS011;5719;42.714;23.732;2023-09-19T01:29:23;10.35;;;5.35;;
11328;SDS011;5719;42.714;23.732;2023-09-19T01:32:03;7.47;;;5.03;;
11328;SDS011;5719;42.714;23.732;2023-09-19T01:34:43;11.30;;;5.75;;
11328;SDS011;5719;42.714;23.732;2023-09-19T01:37:12;9.25;;;5.45;;
11328;SDS011;5719;42.714;23.732;2023-09-19T01:39:39;8.75;;;5.60;;
11328;SDS011;5719;42.714;23.732;2023-09-19T01:42:08;5.55;;;5.05;;
11328;SDS011;5719;42.714;23.732;2023-09-19T01:44:54;6.28;;;5.18;;
11328;SDS011;5719;42.714;23.732;2023-09-19T01:47:32;9.00;;;5.97;;
11328;SDS011;5719;42.714;23.732;2023-09-19T01:50:02;9.70;;;6.32;;
11328;SDS011;5719;42.714;23.732;2023-09-19T01:52:39;8.13;;;5.95;;
11328;SDS011;5719;42.714;23.732;2023-09-19T01:55:13;11.30;;;6.30;;
11328;SDS011;5719;42.714;23.732;2023-09-19T01:57:45;7.25;;;5.95;;
11328;SDS011;5719;42.714;23.732;2023-09-19T02:00:18;6.97;;;5.45;;
11328;SDS011;5719;42.714;23.732;2023-09-19T02:02:50;6.45;;;5.55;;
11328;SDS011;5719;42.714;23.732;2023-09-19T02:05:22;8.57;;;5.15;;
11328;SDS011;5719;42.714;23.732;2023-09-19T02:07:51;5.50;;;4.97;;
11328;SDS011;5719;42.714;23.732;2023-09-19T02:10:18;7.35;;;5.57;;
11328;SDS011;5719;42.714;23.732;2023-09-19T02:12:45;7.25;;;4.97;;
11328;SDS011;5719;42.714;23.732;2023-09-19T02:15:12;6.55;;;4.95;;
11328;SDS011;5719;42.714;23.732;2023-09-19T02:17:41;6.30;;;5.35;;
11328;SDS011;5719;42.714;23.732;2023-09-19T02:20:10;6.53;;;5.50;;
11328;SDS011;5719;42.714;23.732;2023-09-19T02:22:40;10.88;;;5.90;;
11328;SDS011;5719;42.714;23.732;2023-09-19T02:25:07;6.57;;;5.43;;
11328;SDS011;5719;42.714;23.732;2023-09-19T02:27:34;8.55;;;6.22;;
11328;SDS011;5719;42.714;23.732;2023-09-19T02:30:02;6.20;;;5.60;;
11328;SDS011;5719;42.714;23.732;2023-09-19T02:32:31;9.35;;;5.90;;
11328;SDS011;5719;42.714;23.732;2023-09-19T02:35:01;9.77;;;5.75;;
11328;SDS011;5719;42.714;23.732;2023-09-19T02:37:30;5.68;;;5.13;;
11328;SDS011;5719;42.714;23.732;2023-09-19T02:39:57;8.90;;;5.60;;
11328;SDS011;5719;42.714;23.732;2023-09-19T02:42:24;6.68;;;5.38;;
11328;SDS011;5719;42.714;23.732;2023-09-19T02:44:51;7.72;;;5.97;;
11328;SDS011;5719;42.714;23.732;2023-09-19T02:47:18;8.52;;;6.43;;
11328;SDS011;5719;42.714;23.732;2023-09-19T02:49:45;6.50;;;5.30;;
11328;SDS011;5719;42.714;23.732;2023-09-19T02:52:11;5.80;;;5.20;;
11328;SDS011;5719;42.714;23.732;2023-09-19T02:54:41;6.90;;;5.22;;
11328;SDS011;5719;42.714;23.732;2023-09-19T02:57:10;9.48;;;5.65;;
11328;SDS011;5719;42.714;23.732;2023-09-19T02:59:39;6.30;;;5.07;;
11328;SDS011;5719;42.714;23.732;2023-09-19T03:02:07;8.10;;;4.93;;
11328;SDS011;5719;42.714;23.732;2023-09-19T03:04:34;8.57;;;5.03;;
11328;SDS011;5719;42.714;23.732;2023-09-19T03:07:01;10.82;;;5.13;;
11328;SDS011;5719;42.714;23.732;2023-09-19T03:09:31;8.57;;;5.07;;
11328;SDS011;5719;42.714;23.732;2023-09-19T03:11:59;7.95;;;5.28;;
11328;SDS011;5719;42.714;23.732;2023-09-19T03:14:26;5.18;;;4.70;;
11328;SDS011;5719;42.714;23.732;2023-09-19T03:16:55;8.02;;;4.97;;
11328;SDS011;5719;42.714;23.732;2023-09-19T03:19:22;7.72;;;4.80;;
11328;SDS011;5719;42.714;23.732;2023-09-19T03:21:51;6.78;;;4.68;;
11328;SDS011;5719;42.714;23.732;2023-09-19T03:24:18;5.57;;;4.95;;
11328;SDS011;5719;42.714;23.732;2023-09-19T03:26:45;5.95;;;5.35;;
11328;SDS011;5719;42.714;23.732;2023-09-19T03:29:14;9.88;;;6.20;;
11328;SDS011;5719;42.714;23.732;2023-09-19T03:31:42;6.93;;;5.93;;
11328;SDS011;5719;42.714;23.732;2023-09-19T03:34:09;8.80;;;7.30;;
11328;SDS011;5719;42.714;23.732;2023-09-19T03:36:36;13.50;;;7.65;;
11328;SDS011;5719;42.714;23.732;2023-09-19T03:39:03;10.63;;;6.93;;
11328;SDS011;5719;42.714;23.732;2023-09-19T03:41:30;11.43;;;7.13;;
11328;SDS011;5719;42.714;23.732;2023-09-19T03:43:58;9.07;;;5.82;;
11328;SDS011;5719;42.714;23.732;2023-09-19T03:46:26;7.47;;;5.97;;
11328;SDS011;5719;42.714;23.732;2023-09-19T03:48:54;12.20;;;5.90;;
11328;SDS011;5719;42.714;23.732;2023-09-19T03:51:20;10.05;;;6.20;;
11328;SDS011;5719;42.714;23.732;2023-09-19T03:53:49;10.20;;;5.65;;
11328;SDS011;5719;42.714;23.732;2023-09-19T03:56:15;15.15;;;5.60;;
11328;SDS011;5719;42.714;23.732;2023-09-19T03:58:42;8.68;;;5.60;;
11328;SDS011;5719;42.714;23.732;2023-09-19T04:01:10;7.75;;;5.22;;
11328;SDS011;5719;42.714;23.732;2023-09-19T04:03:39;11.82;;;5.55;;
11328;SDS011;5719;42.714;23.732;2023-09-19T04:06:12;5.80;;;5.20;;
11328;SDS011;5719;42.714;23.732;2023-09-19T04:08:39;7.03;;;5.25;;
11328;SDS011;5719;42.714;23.732;2023-09-19T04:11:06;10.30;;;5.13;;
11328;SDS011;5719;42.714;23.732;2023-09-19T04:13:33;7.80;;;5.55;;
11328;SDS011;5719;42.714;23.732;2023-09-19T04:16:00;5.75;;;5.15;;
11328;SDS011;5719;42.714;23.732;2023-09-19T04:18:27;5.90;;;4.80;;
11328;SDS011;5719;42.714;23.732;2023-09-19T04:20:57;14.07;;;5.10;;
11328;SDS011;5719;42.714;23.732;2023-09-19T04:23:24;8.25;;;4.97;;
11328;SDS011;5719;42.714;23.732;2023-09-19T04:25:51;5.72;;;5.15;;
11328;SDS011;5719;42.714;23.732;2023-09-19T04:28:18;5.82;;;5.13;;
11328;SDS011;5719;42.714;23.732;2023-09-19T04:30:45;6.90;;;5.55;;
11328;SDS011;5719;42.714;23.732;2023-09-19T04:33:13;9.18;;;6.10;;
11328;SDS011;5719;42.714;23.732;2023-09-19T04:35:40;8.15;;;5.15;;
11328;SDS011;5719;42.714;23.732;2023-09-19T04:38:09;8.85;;;5.78;;
11328;SDS011;5719;42.714;23.732;2023-09-19T04:40:36;7.63;;;5.75;;
11328;SDS011;5719;42.714;23.732;2023-09-19T04:43:05;8.68;;;5.70;;
11328;SDS011;5719;42.714;23.732;2023-09-19T04:45:33;7.03;;;5.47;;
11328;SDS011;5719;42.714;23.732;2023-09-19T04:48:00;10.65;;;5.18;;
11328;SDS011;5719;42.714;23.732;2023-09-19T04:50:28;6.72;;;5.95;;
11328;SDS011;5719;42.714;23.732;2023-09-19T04:52:55;8.15;;;5.57;;
11328;SDS011;5719;42.714;23.732;2023-09-19T04:55:23;7.35;;;5.28;;
11328;SDS011;5719;42.714;23.732;2023-09-19T04:57:51;9.43;;;5.07;;
11328;SDS011;5719;42.714;23.732;2023-09-19T05:00:18;9.77;;;5.93;;
11328;SDS011;5719;42.714;23.732;2023-09-19T05:02:48;10.85;;;5.85;;
11328;SDS011;5719;42.714;23.732;2023-09-19T05:05:16;8.90;;;6.88;;
11328;SDS011;5719;42.714;23.732;2023-09-19T05:07:44;10.20;;;6.80;;
11328;SDS011;5719;42.714;23.732;2023-09-19T05:10:12;8.48;;;6.40;;
11328;SDS011;5719;42.714;23.732;2023-09-19T05:12:40;8.35;;;6.35;;
11328;SDS011;5719;42.714;23.732;2023-09-19T05:15:10;7.45;;;5.50;;
11328;SDS011;5719;42.714;23.732;2023-09-19T05:17:37;7.63;;;5.65;;
11328;SDS011;5719;42.714;23.732;2023-09-19T05:20:05;6.82;;;5.78;;
11328;SDS011;5719;42.714;23.732;2023-09-19T05:22:46;6.40;;;5.75;;
11328;SDS011;5719;42.714;23.732;2023-09-19T05:25:13;7.13;;;6.20;;
11328;SDS011;5719;42.714;23.732;2023-09-19T05:27:42;8.25;;;6.15;;
11328;SDS011;5719;42.714;23.732;2023-09-19T05:30:10;8.02;;;5.57;;
11328;SDS011;5719;42.714;23.732;2023-09-19T05:32:39;10.70;;;5.35;;
11328;SDS011;5719;42.714;23.732;2023-09-19T05:35:06;12.88;;;5.85;;
11328;SDS011;5719;42.714;23.732;2023-09-19T05:37:34;8.80;;;6.07;;
11328;SDS011;5719;42.714;23.732;2023-09-19T05:40:02;7.63;;;5.47;;
11328;SDS011;5719;42.714;23.732;2023-09-19T05:42:34;10.18;;;5.70;;
11328;SDS011;5719;42.714;23.732;2023-09-19T05:45:03;15.18;;;6.45;;
11328;SDS011;5719;42.714;23.732;2023-09-19T05:47:31;7.78;;;5.45;;
11328;SDS011;5719;42.714;23.732;2023-09-19T05:49:58;8.10;;;5.20;;
11328;SDS011;5719;42.714;23.732;2023-09-19T05:52:25;8.52;;;5.40;;
11328;SDS011;5719;42.714;23.732;2023-09-19T05:54:52;7.43;;;5.30;;
11328;SDS011;5719;42.714;23.732;2023-09-19T05:57:19;5.93;;;4.78;;
11328;SDS011;5719;42.714;23.732;2023-09-19T05:59:47;7.60;;;5.25;;
11328;SDS011;5719;42.714;23.732;2023-09-19T06:02:17;8.10;;;5.05;;
11328;SDS011;5719;42.714;23.732;2023-09-19T06:04:45;6.18;;;5.00;;
11328;SDS011;5719;42.714;23.732;2023-09-19T06:07:11;8.13;;;4.85;;
11328;SDS011;5719;42.714;23.732;2023-09-19T06:09:38;6.03;;;5.10;;
11328;SDS011;5719;42.714;23.732;2023-09-19T06:12:06;6.43;;;4.10;;
11328;SDS011;5719;42.714;23.732;2023-09-19T06:14:33;5.18;;;4.68;;
11328;SDS011;5719;42.714;23.732;2023-09-19T06:17:00;11.85;;;5.07;;
11328;SDS011;5719;42.714;23.732;2023-09-19T06:19:28;7.88;;;4.70;;
11328;SDS011;5719;42.714;23.732;2023-09-19T06:21:55;5.50;;;3.92;;
11328;SDS011;5719;42.714;23.732;2023-09-19T06:24:24;6.95;;;4.43;;
11328;SDS011;5719;42.714;23.732;2023-09-19T06:26:51;5.00;;;4.10;;
11328;SDS011;5719;42.714;23.732;2023-09-19T06:29:18;7.53;;;4.28;;
11328;SDS011;5719;42.714;23.732;2023-09-19T06:31:46;4.65;;;4.25;;
11328;SDS011;5719;42.714;23.732;2023-09-19T06:34:13;6.35;;;3.97;;
11328;SDS011;5719;42.714;23.732;2023-09-19T06:36:42;7.18;;;4.20;;
11328;SDS011;5719;42.714;23.732;2023-09-19T06:39:10;7.47;;;4.60;;
11328;SDS011;5719;42.714;23.732;2023-09-19T06:41:37;4.43;;;3.78;;
11328;SDS011;5719;42.714;23.732;2023-09-19T06:44:04;5.28;;;4.10;;
11328;SDS011;5719;42.714;23.732;2023-09-19T06:46:32;4.65;;;3.80;;
11328;SDS011;5719;42.714;23.732;2023-09-19T06:49:00;7.07;;;4.50;;
11328;SDS011;5719;42.714;23.732;2023-09-19T06:51:31;5.05;;;3.72;;
11328;SDS011;5719;42.714;23.732;2023-09-19T06:54:01;6.38;;;3.85;;
11328;SDS011;5719;42.714;23.732;2023-09-19T06:56:30;8.43;;;4.07;;
11328;SDS011;5719;42.714;23.732;2023-09-19T06:58:58;11.75;;;3.90;;
11328;SDS011;5719;42.714;23.732;2023-09-19T07:01:24;7.45;;;4.05;;
11328;SDS011;5719;42.714;23.732;2023-09-19T07:03:51;6.78;;;3.72;;
11328;SDS011;5719;42.714;23.732;2023-09-19T07:06:18;5.10;;;3.70;;
11328;SDS011;5719;42.714;23.732;2023-09-19T07:08:45;10.27;;;3.88;;
11328;SDS011;5719;42.714;23.732;2023-09-19T07:11:14;5.15;;;3.83;;
11328;SDS011;5719;42.714;23.732;2023-09-19T07:13:40;6.78;;;3.72;;
11328;SDS011;5719;42.714;23.732;2023-09-19T07:16:08;6.75;;;3.85;;
11328;SDS011;5719;42.714;23.732;2023-09-19T07:18:44;4.60;;;4.05;;
11328;SDS011;5719;42.714;23.732;2023-09-19T07:21:11;6.07;;;3.95;;
11328;SDS011;5719;42.714;23.732;2023-09-19T07:23:40;4.28;;;3.85;;
11328;SDS011;5719;42.714;23.732;2023-09-19T07:26:07;4.10;;;3.70;;
11328;SDS011;5719;42.714;23.732;2023-09-19T07:28:35;4.47;;;3.38;;
11328;SDS011;5719;42.714;23.732;2023-09-19T07:31:02;6.13;;;3.10;;
11328;SDS011;5719;42.714;23.732;2023-09-19T07:33:30;4.88;;;3.60;;
11328;SDS011;5719;42.714;23.732;2023-09-19T07:35:57;7.88;;;3.53;;
11328;SDS011;5719;42.714;23.732;2023-09-19T07:38:24;4.40;;;3.40;;
11328;SDS011;5719;42.714;23.732;2023-09-19T07:40:52;7.20;;;3.30;;
11328;SDS011;5719;42.714;23.732;2023-09-19T07:43:20;5.85;;;3.03;;
11328;SDS011;5719;42.714;23.732;2023-09-19T07:45:48;6.15;;;3.53;;
11328;SDS011;5719;42.714;23.732;2023-09-19T07:48:15;4.40;;;3.55;;
11328;SDS011;5719;42.714;23.732;2023-09-19T07:50:42;5.63;;;3.08;;
11328;SDS011;5719;42.714;23.732;2023-09-19T07:53:10;3.92;;;2.97;;
11328;SDS011;5719;42.714;23.732;2023-09-19T07:55:38;3.33;;;3.03;;
11328;SDS011;5719;42.714;23.732;2023-09-19T07:58:06;6.03;;;3.30;;
11328;SDS011;5719;42.714;23.732;2023-09-19T08:00:33;8.85;;;2.90;;
11328;SDS011;5719;42.714;23.732;2023-09-19T08:03:01;7.25;;;3.10;;
11328;SDS011;5719;42.714;23.732;2023-09-19T08:05:29;3.20;;;2.90;;
11328;SDS011;5719;42.714;23.732;2023-09-19T08:07:56;4.57;;;3.30;;
11328;SDS011;5719;42.714;23.732;2023-09-19T08:10:24;10.77;;;3.53;;
11328;SDS011;5719;42.714;23.732;2023-09-19T08:12:53;4.75;;;3.05;;
11328;SDS011;5719;42.714;23.732;2023-09-19T08:15:23;5.82;;;3.28;;
11328;SDS011;5719;42.714;23.732;2023-09-19T08:17:50;5.10;;;3.50;;
11328;SDS011;5719;42.714;23.732;2023-09-19T08:20:18;7.32;;;3.50;;
11328;SDS011;5719;42.714;23.732;2023-09-19T08:22:47;6.03;;;3.35;;
11328;SDS011;5719;42.714;23.732;2023-09-19T08:25:17;3.47;;;3.17;;
11328;SDS011;5719;42.714;23.732;2023-09-19T08:27:45;2.85;;;2.55;;
11328;SDS011;5719;42.714;23.732;2023-09-19T08:30:13;3.17;;;2.90;;
11328;SDS011;5719;42.714;23.732;2023-09-19T08:32:40;6.35;;;3.03;;
11328;SDS011;5719;42.714;23.732;2023-09-19T08:35:08;3.42;;;2.90;;
11328;SDS011;5719;42.714;23.732;2023-09-19T08:37:37;5.20;;;3.05;;
11328;SDS011;5719;42.714;23.732;2023-09-19T08:40:04;6.78;;;3.10;;
11328;SDS011;5719;42.714;23.732;2023-09-19T08:42:46;8.02;;;3.00;;
11328;SDS011;5719;42.714;23.732;2023-09-19T08:45:14;4.20;;;3.30;;
11328;SDS011;5719;42.714;23.732;2023-09-19T08:47:42;5.85;;;2.70;;
11328;SDS011;5719;42.714;23.732;2023-09-19T08:50:15;5.47;;;3.17;;
11328;SDS011;5719;42.714;23.732;2023-09-19T08:52:47;3.28;;;2.90;;
11328;SDS011;5719;42.714;23.732;2023-09-19T08:55:18;4.83;;;2.87;;
11328;SDS011;5719;42.714;23.732;2023-09-19T08:57:48;4.40;;;3.40;;
11328;SDS011;5719;42.714;23.732;2023-09-19T09:00:16;3.17;;;2.88;;
11328;SDS011;5719;42.714;23.732;2023-09-19T09:02:46;3.67;;;3.38;;
11328;SDS011;5719;42.714;23.732;2023-09-19T09:05:14;4.45;;;3.10;;
11328;SDS011;5719;42.714;23.732;2023-09-19T09:07:49;3.22;;;2.92;;
11328;SDS011;5719;42.714;23.732;2023-09-19T09:10:17;3.63;;;3.15;;
11328;SDS011;5719;42.714;23.732;2023-09-19T09:12:47;3.33;;;3.03;;
11328;SDS011;5719;42.714;23.732;2023-09-19T09:15:15;4.93;;;2.80;;
11328;SDS011;5719;42.714;23.732;2023-09-19T09:17:46;3.90;;;3.15;;
11328;SDS011;5719;42.714;23.732;2023-09-19T09:20:15;5.28;;;3.22;;
11328;SDS011;5719;42.714;23.732;2023-09-19T09:22:51;6.57;;;3.08;;
11328;SDS011;5719;42.714;23.732;2023-09-19T09:25:20;5.57;;;2.95;;
11328;SDS011;5719;42.714;23.732;2023-09-19T09:27:58;3.55;;;2.90;;
11328;SDS011;5719;42.714;23.732;2023-09-19T09:30:33;2.83;;;2.63;;
11328;SDS011;5719;42.714;23.732;2023-09-19T09:33:07;5.40;;;2.90;;
11328;SDS011;5719;42.714;23.732;2023-09-19T09:35:36;4.38;;;3.15;;
11328;SDS011;5719;42.714;23.732;2023-09-19T09:38:05;4.88;;;2.53;;
11328;SDS011;5719;42.714;23.732;2023-09-19T09:40:45;4.65;;;2.95;;
11328;SDS011;5719;42.714;23.732;2023-09-19T09:46:13;4.63;;;3.22;;
11328;SDS011;5719;42.714;23.732;2023-09-19T09:49:06;5.00;;;2.70;;
11328;SDS011;5719;42.714;23.732;2023-09-19T09:51:44;3.45;;;2.85;;
11328;SDS011;5719;42.714;23.732;2023-09-19T09:54:24;5.85;;;2.60;;
11328;SDS011;5719;42.714;23.732;2023-09-19T09:56:54;2.65;;;2.45;;
11328;SDS011;5719;42.714;23.732;2023-09-19T10:02:15;4.43;;;2.97;;
11328;SDS011;5719;42.714;23.732;2023-09-19T10:04:48;5.05;;;2.60;;
11328;SDS011;5719;42.714;23.732;2023-09-19T10:07:29;2.55;;;2.35;;
11328;SDS011;5719;42.714;23.732;2023-09-19T10:10:05;3.30;;;2.40;;
11328;SDS011;5719;42.714;23.732;2023-09-19T10:12:42;4.40;;;2.70;;
11328;SDS011;5719;42.714;23.732;2023-09-19T10:15:13;2.70;;;2.50;;
11328;SDS011;5719;42.714;23.732;2023-09-19T10:17:43;5.03;;;2.60;;
11328;SDS011;5719;42.714;23.732;2023-09-19T10:20:13;7.45;;;2.88;;
11328;SDS011;5719;42.714;23.732;2023-09-19T10:22:59;11.88;;;2.97;;
11328;SDS011;5719;42.714;23.732;2023-09-19T10:25:28;4.38;;;2.60;;
11328;SDS011;5719;42.714;23.732;2023-09-19T10:27:56;4.00;;;2.70;;
11328;SDS011;5719;42.714;23.732;2023-09-19T10:30:27;3.55;;;2.97;;
11328;SDS011;5719;42.714;23.732;2023-09-19T10:32:57;3.17;;;2.88;;
11328;SDS011;5719;42.714;23.732;2023-09-19T10:35:27;4.93;;;2.70;;
11328;SDS011;5719;42.714;23.732;2023-09-19T10:37:55;5.50;;;2.80;;
11328;SDS011;5719;42.714;23.732;2023-09-19T10:40:27;3.13;;;2.75;;
11328;SDS011;5719;42.714;23.732;2023-09-19T10:43:03;3.22;;;2.92;;
11328;SDS011;5719;42.714;23.732;2023-09-19T10:45:31;5.47;;;2.90;;
11328;SDS011;5719;42.714;23.732;2023-09-19T10:48:00;3.35;;;2.80;;
11328;SDS011;5719;42.714;23.732;2023-09-19T10:50:29;4.97;;;2.53;;
11328;SDS011;5719;42.714;23.732;2023-09-19T10:53:00;2.83;;;2.63;;
11328;SDS011;5719;42.714;23.732;2023-09-19T10:55:34;4.22;;;2.63;;
11328;SDS011;5719;42.714;23.732;2023-09-19T10:58:02;3.35;;;2.53;;
11328;SDS011;5719;42.714;23.732;2023-09-19T11:03:34;2.50;;;2.22;;
11328;SDS011;5719;42.714;23.732;2023-09-19T11:06:09;3.92;;;2.70;;
11328;SDS011;5719;42.714;23.732;2023-09-19T11:11:40;3.80;;;2.65;;
11328;SDS011;5719;42.714;23.732;2023-09-19T11:14:30;3.78;;;2.63;;
11328;SDS011;5719;42.714;23.732;2023-09-19T11:20:23;5.53;;;2.88;;
11328;SDS011;5719;42.714;23.732;2023-09-19T11:23:17;10.38;;;8.63;;
11328;SDS011;5719;42.714;23.732;2023-09-19T11:25:48;3.85;;;3.30;;
11328;SDS011;5719;42.714;23.732;2023-09-19T11:28:33;3.30;;;2.88;;
11328;SDS011;5719;42.714;23.732;2023-09-19T11:46:07;4.22;;;2.50;;
11328;SDS011;5719;42.714;23.732;2023-09-19T11:48:34;4.43;;;2.90;;
11328;SDS011;5719;42.714;23.732;2023-09-19T11:51:16;4.68;;;4.13;;
11328;SDS011;5719;42.714;23.732;2023-09-19T11:53:52;5.25;;;3.47;;
11328;SDS011;5719;42.714;23.732;2023-09-19T11:56:20;6.88;;;3.47;;
11328;SDS011;5719;42.714;23.732;2023-09-19T11:58:49;4.47;;;2.80;;
11328;SDS011;5719;42.714;23.732;2023-09-19T12:01:24;3.58;;;2.95;;
11328;SDS011;5719;42.714;23.732;2023-09-19T12:03:54;5.13;;;2.78;;
11328;SDS011;5719;42.714;23.732;2023-09-19T12:06:23;4.20;;;2.92;;
11328;SDS011;5719;42.714;23.732;2023-09-19T12:08:50;3.85;;;2.47;;
11328;SDS011;5719;42.714;23.732;2023-09-19T12:11:19;3.80;;;2.50;;
11328;SDS011;5719;42.714;23.732;2023-09-19T12:13:48;6.85;;;4.00;;
11328;SDS011;5719;42.714;23.732;2023-09-19T12:16:15;7.28;;;2.70;;
11328;SDS011;5719;42.714;23.732;2023-09-19T12:18:48;5.75;;;4.15;;
11328;SDS011;5719;42.714;23.732;2023-09-19T12:21:23;3.60;;;3.15;;
11328;SDS011;5719;42.714;23.732;2023-09-19T12:26:41;8.18;;;5.22;;
11328;SDS011;5719;42.714;23.732;2023-09-19T12:29:13;4.10;;;3.80;;
11328;SDS011;5719;42.714;23.732;2023-09-19T12:31:52;7.80;;;3.72;;
11328;SDS011;5719;42.714;23.732;2023-09-19T12:34:24;6.43;;;3.30;;
11328;SDS011;5719;42.714;23.732;2023-09-19T12:37:06;2.95;;;2.75;;
11328;SDS011;5719;42.714;23.732;2023-09-19T12:39:38;4.80;;;3.70;;
11328;SDS011;5719;42.714;23.732;2023-09-19T12:42:07;4.03;;;2.97;;
11328;SDS011;5719;42.714;23.732;2023-09-19T12:44:36;6.82;;;3.25;;
11328;SDS011;5719;42.714;23.732;2023-09-19T12:47:10;6.35;;;3.60;;
11328;SDS011;5719;42.714;23.732;2023-09-19T12:52:39;4.30;;;3.10;;
11328;SDS011;5719;42.714;23.732;2023-09-19T12:55:07;3.25;;;2.97;;
11328;SDS011;5719;42.714;23.732;2023-09-19T12:57:36;3.47;;;2.88;;
11328;SDS011;5719;42.714;23.732;2023-09-19T13:00:05;5.40;;;3.13;;
11328;SDS011;5719;42.714;23.732;2023-09-19T13:02:36;5.75;;;2.75;;
11328;SDS011;5719;42.714;23.732;2023-09-19T13:05:03;13.57;;;3.35;;
11328;SDS011;5719;42.714;23.732;2023-09-19T13:07:43;4.70;;;3.22;;
11328;SDS011;5719;42.714;23.732;2023-09-19T13:10:11;4.50;;;3.13;;
11328;SDS011;5719;42.714;23.732;2023-09-19T13:12:41;5.45;;;4.72;;
11328;SDS011;5719;42.714;23.732;2023-09-19T13:15:12;5.43;;;3.08;;
11328;SDS011;5719;42.714;23.732;2023-09-19T13:17:44;6.15;;;3.88;;
11328;SDS011;5719;42.714;23.732;2023-09-19T13:20:20;4.10;;;3.30;;
11328;SDS011;5719;42.714;23.732;2023-09-19T13:22:54;5.25;;;2.80;;
11328;SDS011;5719;42.714;23.732;2023-09-19T13:25:25;10.35;;;5.97;;
11328;SDS011;5719;42.714;23.732;2023-09-19T13:27:55;4.10;;;3.35;;
11328;SDS011;5719;42.714;23.732;2023-09-19T13:30:23;6.15;;;3.10;;
11328;SDS011;5719;42.714;23.732;2023-09-19T13:33:04;4.15;;;2.97;;
11328;SDS011;5719;42.714;23.732;2023-09-19T13:35:32;10.63;;;3.22;;
11328;SDS011;5719;42.714;23.732;2023-09-19T13:38:00;4.35;;;2.97;;
11328;SDS011;5719;42.714;23.732;2023-09-19T13:40:27;5.25;;;3.15;;
11328;SDS011;5719;42.714;23.732;2023-09-19T13:42:56;8.75;;;3.22;;
11328;SDS011;5719;42.714;23.732;2023-09-19T13:45:23;10.95;;;3.08;;
11328;SDS011;5719;42.714;23.732;2023-09-19T13:47:52;5.55;;;2.90;;
11328;SDS011;5719;42.714;23.732;2023-09-19T13:50:20;4.85;;;3.33;;
11328;SDS011;5719;42.714;23.732;2023-09-19T13:52:49;5.43;;;2.85;;
11328;SDS011;5719;42.714;23.732;2023-09-19T13:55:19;6.38;;;3.05;;
11328;SDS011;5719;42.714;23.732;2023-09-19T13:57:46;8.95;;;3.30;;
11328;SDS011;5719;42.714;23.732;2023-09-19T14:00:15;3.85;;;3.00;;
11328;SDS011;5719;42.714;23.732;2023-09-19T14:02:43;3.22;;;2.90;;
11328;SDS011;5719;42.714;23.732;2023-09-19T14:05:11;3.75;;;3.17;;
11328;SDS011;5719;42.714;23.732;2023-09-19T14:07:40;4.80;;;3.10;;
11328;SDS011;5719;42.714;23.732;2023-09-19T14:10:07;5.68;;;3.03;;
11328;SDS011;5719;42.714;23.732;2023-09-19T14:12:38;3.30;;;3.00;;
11328;SDS011;5719;42.714;23.732;2023-09-19T14:15:06;7.28;;;3.28;;
11328;SDS011;5719;42.714;23.732;2023-09-19T14:17:33;4.35;;;3.33;;
11328;SDS011;5719;42.714;23.732;2023-09-19T14:20:02;17.77;;;3.40;;
11328;SDS011;5719;42.714;23.732;2023-09-19T14:22:31;7.47;;;3.20;;
11328;SDS011;5719;42.714;23.732;2023-09-19T14:24:58;6.55;;;3.00;;
11328;SDS011;5719;42.714;23.732;2023-09-19T14:27:25;7.28;;;3.08;;
11328;SDS011;5719;42.714;23.732;2023-09-19T14:29:56;8.35;;;3.28;;
11328;SDS011;5719;42.714;23.732;2023-09-19T14:32:23;3.25;;;2.70;;
11328;SDS011;5719;42.714;23.732;2023-09-19T14:34:51;5.18;;;3.50;;
11328;SDS011;5719;42.714;23.732;2023-09-19T14:37:20;3.30;;;3.00;;
11328;SDS011;5719;42.714;23.732;2023-09-19T14:39:50;5.53;;;3.08;;
11328;SDS011;5719;42.714;23.732;2023-09-19T14:42:17;3.97;;;3.20;;
11328;SDS011;5719;42.714;23.732;2023-09-19T14:44:44;6.25;;;3.13;;
11328;SDS011;5719;42.714;23.732;2023-09-19T14:47:14;4.28;;;3.00;;
11328;SDS011;5719;42.714;23.732;2023-09-19T14:49:42;6.35;;;3.20;;
11328;SDS011;5719;42.714;23.732;2023-09-19T14:52:09;5.10;;;2.92;;
11328;SDS011;5719;42.714;23.732;2023-09-19T14:54:40;7.70;;;3.15;;
11328;SDS011;5719;42.714;23.732;2023-09-19T14:57:07;4.90;;;2.90;;
11328;SDS011;5719;42.714;23.732;2023-09-19T14:59:35;9.38;;;3.30;;
11328;SDS011;5719;42.714;23.732;2023-09-19T15:02:03;8.57;;;3.72;;
11328;SDS011;5719;42.714;23.732;2023-09-19T15:04:31;9.10;;;3.65;;
11328;SDS011;5719;42.714;23.732;2023-09-19T15:06:59;4.15;;;3.28;;
11328;SDS011;5719;42.714;23.732;2023-09-19T15:09:27;3.40;;;3.10;;
11328;SDS011;5719;42.714;23.732;2023-09-19T15:11:57;8.73;;;3.08;;
11328;SDS011;5719;42.714;23.732;2023-09-19T15:14:24;4.50;;;3.20;;
11328;SDS011;5719;42.714;23.732;2023-09-19T15:16:51;7.55;;;3.83;;
11328;SDS011;5719;42.714;23.732;2023-09-19T15:19:18;3.85;;;3.10;;
11328;SDS011;5719;42.714;23.732;2023-09-19T15:21:49;6.25;;;3.20;;
11328;SDS011;5719;42.714;23.732;2023-09-19T15:24:16;3.55;;;3.25;;
11328;SDS011;5719;42.714;23.732;2023-09-19T15:26:43;8.07;;;3.17;;
11328;SDS011;5719;42.714;23.732;2023-09-19T15:29:11;8.60;;;3.55;;
11328;SDS011;5719;42.714;23.732;2023-09-19T15:31:38;6.53;;;3.17;;
11328;SDS011;5719;42.714;23.732;2023-09-19T15:34:05;7.03;;;4.05;;
11328;SDS011;5719;42.714;23.732;2023-09-19T15:36:33;3.88;;;3.03;;